Time;durP1;ratioP1;P1;durP2;ratioP2;P2;SDS_P1;SDS_P2;PMS_P1;PMS_P2;Temp;Humidity;BMP_temperature;BMP_pressure;BME280_temperature;BME280_humidity;BME280_pressure;Samples;Min_cycle;Max_cycle;Signal;HPM_P1;HPM_P2
2021/08/03 00:00:23;;;;;;;5.55;1.60;;;;;;;;;;5984160;23;20033;-50
2021/08/03 00:02:52;;;;;;;4.78;1.80;;;;;;;;;;5993995;23;20026;-52
2021/08/03 00:05:20;;;;;;;4.03;2.00;;;;;;;;;;5970552;23;20034;-53
2021/08/03 00:07:48;;;;;;;6.05;2.53;;;;;;;;;;5965147;24;20034;-52
2021/08/03 00:10:17;;;;;;;4.28;1.70;;;;;;;;;;5972964;23;20086;-54
2021/08/03 00:12:44;;;;;;;6.95;1.80;;;;;;;;;;5993946;23;20045;-52
2021/08/03 00:15:11;;;;;;;5.47;1.77;;;;;;;;;;5985084;23;20039;-52
2021/08/03 00:17:38;;;;;;;7.03;1.50;;;;;;;;;;6009903;23;20041;-51
2021/08/03 00:20:07;;;;;;;4.82;1.13;;;;;;;;;;5985212;23;20041;-53
2021/08/03 00:22:34;;;;;;;3.92;1.20;;;;;;;;;;5984098;23;20051;-52
2021/08/03 00:25:01;;;;;;;2.55;1.15;;;;;;;;;;5968315;23;20053;-52
2021/08/03 00:27:27;;;;;;;3.65;1.15;;;;;;;;;;5992741;23;20022;-52
2021/08/03 00:29:54;;;;;;;3.00;1.15;;;;;;;;;;5989557;23;20035;-50
2021/08/03 00:32:20;;;;;;;4.85;1.13;;;;;;;;;;5993036;23;20030;-50
2021/08/03 00:34:47;;;;;;;5.65;1.30;;;;;;;;;;5992456;23;20029;-51
2021/08/03 00:37:15;;;;;;;6.80;1.40;;;;;;;;;;5962621;23;20049;-53
2021/08/03 00:39:41;;;;;;;6.17;1.20;;;;;;;;;;5965469;24;20042;-49
2021/08/03 00:42:08;;;;;;;4.13;1.40;;;;;;;;;;5963659;23;20039;-49
2021/08/03 00:44:42;;;;;;;5.03;1.63;;;;;;;;;;5965347;24;20030;-51
2021/08/03 00:47:08;;;;;;;3.10;1.00;;;;;;;;;;5963183;24;20030;-49
2021/08/03 00:49:35;;;;;;;5.70;1.20;;;;;;;;;;5964484;24;20034;-50
2021/08/03 00:52:02;;;;;;;3.75;1.05;;;;;;;;;;5981744;23;20045;-52
2021/08/03 00:54:31;;;;;;;3.15;1.27;;;;;;;;;;5992705;23;20038;-50
2021/08/03 00:57:00;;;;;;;7.25;1.20;;;;;;;;;;5985159;23;20034;-51
2021/08/03 00:59:26;;;;;;;;;;;;;;;;;;5988938;23;20023;-50
2021/08/03 01:01:53;;;;;;;2.72;1.10;;;;;;;;;;5971661;23;19917;-49
2021/08/03 01:04:19;;;;;;;1.90;1.10;;;;;;;;;;5993411;23;20030;-49
2021/08/03 01:06:48;;;;;;;4.03;1.00;;;;;;;;;;5984877;23;20081;-51
2021/08/03 01:09:18;;;;;;;3.20;1.00;;;;;;;;;;5965441;23;20038;-48
2021/08/03 01:11:50;;;;;;;1.38;0.95;;;;;;;;;;5968358;23;20077;-48
2021/08/03 01:14:19;;;;;;;4.85;0.90;;;;;;;;;;5995665;23;20022;-48
2021/08/03 01:16:51;;;;;;;2.42;0.98;;;;;;;;;;5993389;23;20026;-50
2021/08/03 01:19:22;;;;;;;3.47;0.98;;;;;;;;;;5994700;23;20033;-50
2021/08/03 01:21:50;;;;;;;2.55;0.90;;;;;;;;;;5989992;23;20109;-53
2021/08/03 01:24:33;;;;;;;3.75;1.05;;;;;;;;;;5994185;23;20034;-52
2021/08/03 01:27:11;;;;;;;3.17;1.00;;;;;;;;;;6010758;23;20029;-48
2021/08/03 01:29:41;;;;;;;1.88;1.10;;;;;;;;;;5992492;23;20057;-49
2021/08/03 01:32:08;;;;;;;2.63;0.90;;;;;;;;;;6014574;23;20037;-50
2021/08/03 01:34:38;;;;;;;5.80;1.10;;;;;;;;;;5993520;23;20038;-50
2021/08/03 01:37:05;;;;;;;5.25;1.30;;;;;;;;;;5993277;23;20026;-49
2021/08/03 01:39:33;;;;;;;2.17;0.98;;;;;;;;;;5981952;23;20035;-51
2021/08/03 01:42:00;;;;;;;3.03;0.90;;;;;;;;;;5988290;23;20034;-51
2021/08/03 01:44:29;;;;;;;4.78;1.17;;;;;;;;;;5961608;24;20041;-50
2021/08/03 01:46:58;;;;;;;5.03;1.08;;;;;;;;;;5964412;24;20034;-49
2021/08/03 01:49:25;;;;;;;2.33;1.00;;;;;;;;;;5982188;23;20034;-54
2021/08/03 01:51:56;;;;;;;3.42;1.10;;;;;;;;;;5991689;23;20115;-54
2021/08/03 01:54:24;;;;;;;3.40;1.20;;;;;;;;;;5974606;23;20045;-53
2021/08/03 01:56:52;;;;;;;1.75;1.10;;;;;;;;;;5962829;24;20035;-52
2021/08/03 01:59:18;;;;;;;3.27;1.53;;;;;;;;;;5961624;24;20037;-53
2021/08/03 02:01:45;;;;;;;3.33;1.50;;;;;;;;;;5963234;24;20045;-50
2021/08/03 02:04:14;;;;;;;3.15;1.20;;;;;;;;;;5971515;23;20044;-50
2021/08/03 02:06:40;;;;;;;3.53;1.13;;;;;;;;;;6014431;23;20112;-51
2021/08/03 02:09:09;;;;;;;2.75;1.15;;;;;;;;;;5989457;23;20037;-51
2021/08/03 02:11:36;;;;;;;3.97;1.30;;;;;;;;;;5986760;23;20057;-47
2021/08/03 02:14:03;;;;;;;3.05;1.10;;;;;;;;;;5988811;23;20152;-51
2021/08/03 02:16:31;;;;;;;8.23;1.20;;;;;;;;;;5993589;23;20038;-51
2021/08/03 02:18:57;;;;;;;3.28;1.33;;;;;;;;;;5991089;23;20034;-52
2021/08/03 02:21:25;;;;;;;2.88;1.13;;;;;;;;;;5990547;23;20038;-53
2021/08/03 02:23:52;;;;;;;1.83;0.90;;;;;;;;;;5992817;23;20044;-47
2021/08/03 02:26:19;;;;;;;3.45;1.13;;;;;;;;;;5982728;23;20093;-50
2021/08/03 02:28:45;;;;;;;3.58;1.15;;;;;;;;;;5987975;23;20027;-52
2021/08/03 02:31:15;;;;;;;2.95;1.00;;;;;;;;;;5983942;23;20127;-52
2021/08/03 02:33:45;;;;;;;2.63;1.20;;;;;;;;;;5993730;23;20104;-51
2021/08/03 02:36:12;;;;;;;4.90;1.10;;;;;;;;;;5982869;23;20065;-49
2021/08/03 02:38:42;;;;;;;1.65;1.02;;;;;;;;;;5985423;23;20031;-49
2021/08/03 02:41:09;;;;;;;3.22;1.08;;;;;;;;;;6000787;23;20030;-50
2021/08/03 02:43:36;;;;;;;4.90;1.13;;;;;;;;;;5991619;23;20037;-48
2021/08/03 02:46:04;;;;;;;5.10;1.10;;;;;;;;;;5985996;23;20030;-48
2021/08/03 02:48:31;;;;;;;1.70;0.95;;;;;;;;;;5968211;23;20054;-48
2021/08/03 02:50:58;;;;;;;2.42;1.20;;;;;;;;;;5975099;23;20041;-48
2021/08/03 02:53:26;;;;;;;2.05;1.13;;;;;;;;;;6018262;23;20108;-51
2021/08/03 02:55:57;;;;;;;5.65;1.40;;;;;;;;;;5982283;23;20469;-52
2021/08/03 02:58:26;;;;;;;2.80;1.30;;;;;;;;;;5964994;24;20129;-53
2021/08/03 03:00:53;;;;;;;;;;;;;;;;;;5964672;24;20042;-51
2021/08/03 03:03:21;;;;;;;4.95;1.38;;;;;;;;;;6014046;23;19916;-52
2021/08/03 03:05:50;;;;;;;2.63;1.30;;;;;;;;;;5991837;23;20045;-51
2021/08/03 03:08:18;;;;;;;6.15;1.50;;;;;;;;;;5966263;24;20034;-51
2021/08/03 03:10:46;;;;;;;2.10;1.13;;;;;;;;;;6004681;23;20097;-49
2021/08/03 03:13:15;;;;;;;5.00;1.50;;;;;;;;;;6007268;23;20061;-50
2021/08/03 03:15:42;;;;;;;3.72;1.20;;;;;;;;;;5961471;23;20186;-52
2021/08/03 03:18:09;;;;;;;3.92;1.40;;;;;;;;;;6006678;23;20033;-53
2021/08/03 03:20:37;;;;;;;5.95;1.40;;;;;;;;;;5990495;23;20097;-52
2021/08/03 03:23:04;;;;;;;2.42;1.33;;;;;;;;;;6007021;23;20045;-54
2021/08/03 03:25:31;;;;;;;4.50;1.45;;;;;;;;;;5963192;23;20094;-48
2021/08/03 03:27:59;;;;;;;2.35;1.38;;;;;;;;;;5978122;23;20037;-52
2021/08/03 03:30:28;;;;;;;3.47;1.23;;;;;;;;;;5991221;23;20022;-53
2021/08/03 03:32:54;;;;;;;;;;;;;;;;;;6002952;23;20049;-50
2021/08/03 03:35:27;;;;;;;1.85;0.95;;;;;;;;;;5963215;23;19913;-51
2021/08/03 03:37:54;;;;;;;3.08;1.30;;;;;;;;;;5939898;24;20033;-52
2021/08/03 03:40:24;;;;;;;3.38;1.50;;;;;;;;;;5972868;23;20041;-48
2021/08/03 03:42:52;;;;;;;3.47;1.40;;;;;;;;;;5990027;23;20036;-48
2021/08/03 03:45:19;;;;;;;1.53;1.10;;;;;;;;;;5992745;23;20030;-54
2021/08/03 03:47:51;;;;;;;3.95;1.50;;;;;;;;;;5990204;23;20037;-52
2021/08/03 03:50:21;;;;;;;4.68;1.30;;;;;;;;;;5995511;23;20034;-51
2021/08/03 03:52:50;;;;;;;2.05;1.17;;;;;;;;;;5992700;23;20120;-54
2021/08/03 03:55:19;;;;;;;2.53;1.02;;;;;;;;;;6016919;23;20065;-51
2021/08/03 03:57:48;;;;;;;2.13;1.02;;;;;;;;;;5993061;23;20026;-49
2021/08/03 04:00:15;;;;;;;6.55;1.30;;;;;;;;;;6014729;23;20042;-50
2021/08/03 04:02:42;;;;;;;4.72;1.10;;;;;;;;;;6014481;23;20046;-51
2021/08/03 04:05:12;;;;;;;6.80;1.10;;;;;;;;;;5964377;23;20042;-50
2021/08/03 04:07:38;;;;;;;3.53;1.20;;;;;;;;;;5989288;23;20034;-51
2021/08/03 04:10:06;;;;;;;3.03;1.08;;;;;;;;;;5986385;23;20034;-50
2021/08/03 04:12:32;;;;;;;5.07;1.25;;;;;;;;;;5983645;23;20030;-48
2021/08/03 04:14:59;;;;;;;4.95;1.40;;;;;;;;;;5999545;23;20048;-51
2021/08/03 04:17:26;;;;;;;4.93;1.20;;;;;;;;;;6015425;23;20030;-49
2021/08/03 04:19:52;;;;;;;3.00;1.30;;;;;;;;;;6010488;23;20026;-50
2021/08/03 04:22:20;;;;;;;5.53;0.98;;;;;;;;;;5965636;23;20034;-50
2021/08/03 04:24:49;;;;;;;2.97;1.10;;;;;;;;;;5965441;23;20034;-49
2021/08/03 04:27:15;;;;;;;;;;;;;;;;;;5968963;24;20058;-54
2021/08/03 04:29:41;;;;;;;1.27;0.82;;;;;;;;;;5960931;24;19940;-49
2021/08/03 04:32:08;;;;;;;1.88;0.85;;;;;;;;;;5964957;24;20053;-51
2021/08/03 04:34:35;;;;;;;3.83;1.20;;;;;;;;;;5966791;24;20041;-54
2021/08/03 04:37:01;;;;;;;2.55;1.13;;;;;;;;;;5992498;23;20078;-49
2021/08/03 04:39:32;;;;;;;3.65;1.20;;;;;;;;;;5990328;23;20066;-53
2021/08/03 04:41:58;;;;;;;2.70;1.25;;;;;;;;;;5965535;23;20128;-52
2021/08/03 04:44:25;;;;;;;3.15;1.38;;;;;;;;;;5962716;23;20037;-51
2021/08/03 04:46:51;;;;;;;8.10;1.42;;;;;;;;;;5962134;23;20026;-53
2021/08/03 04:49:18;;;;;;;3.85;1.25;;;;;;;;;;5964918;24;20042;-50
2021/08/03 04:51:44;;;;;;;5.35;1.20;;;;;;;;;;5961824;24;20030;-52
2021/08/03 04:54:11;;;;;;;5.78;1.30;;;;;;;;;;5964194;23;20030;-49
2021/08/03 04:56:38;;;;;;;2.95;1.20;;;;;;;;;;5962558;24;20460;-54
2021/08/03 04:59:05;;;;;;;3.88;1.10;;;;;;;;;;5964144;24;20030;-48
2021/08/03 05:01:31;;;;;;;3.72;1.50;;;;;;;;;;5962053;24;20038;-48
2021/08/03 05:03:58;;;;;;;7.15;1.40;;;;;;;;;;5965968;23;20031;-49
2021/08/03 05:06:24;;;;;;;4.13;1.35;;;;;;;;;;5960059;24;20120;-51
2021/08/03 05:08:50;;;;;;;6.72;2.63;;;;;;;;;;5934164;24;20119;-52
2021/08/03 05:11:17;;;;;;;5.88;1.55;;;;;;;;;;5979005;23;20038;-50
2021/08/03 05:13:45;;;;;;;5.68;1.67;;;;;;;;;;5990983;23;20046;-50
2021/08/03 05:16:12;;;;;;;5.38;1.50;;;;;;;;;;5984303;23;20026;-50
2021/08/03 05:18:38;;;;;;;5.95;1.80;;;;;;;;;;6008623;23;20030;-51
2021/08/03 05:21:04;;;;;;;6.07;1.58;;;;;;;;;;5985859;23;20030;-50
2021/08/03 05:23:31;;;;;;;5.45;1.40;;;;;;;;;;6011358;23;20054;-50
2021/08/03 05:25:58;;;;;;;5.03;1.40;;;;;;;;;;6013876;23;20029;-49
2021/08/03 05:28:24;;;;;;;3.03;1.25;;;;;;;;;;6009087;23;20054;-50
2021/08/03 05:30:52;;;;;;;3.92;1.63;;;;;;;;;;5975908;23;20153;-49
2021/08/03 05:33:19;;;;;;;5.30;1.60;;;;;;;;;;5986872;23;20057;-51
2021/08/03 05:35:45;;;;;;;7.80;1.70;;;;;;;;;;5990037;23;20038;-50
2021/08/03 05:38:12;;;;;;;5.18;1.60;;;;;;;;;;5984083;23;20034;-50
2021/08/03 05:40:38;;;;;;;3.97;1.70;;;;;;;;;;5985605;23;20045;-51
2021/08/03 05:43:05;;;;;;;6.00;1.60;;;;;;;;;;5977975;23;20375;-50
2021/08/03 05:45:35;;;;;;;7.22;1.92;;;;;;;;;;5989676;23;20034;-49
2021/08/03 05:48:02;;;;;;;5.43;1.60;;;;;;;;;;5981612;23;20115;-48
2021/08/03 05:50:29;;;;;;;6.30;2.30;;;;;;;;;;6010929;23;20062;-48
2021/08/03 05:52:55;;;;;;;3.50;1.73;;;;;;;;;;5983431;23;20065;-50
2021/08/03 05:55:27;;;;;;;3.20;1.48;;;;;;;;;;5990690;23;20058;-50
2021/08/03 05:57:54;;;;;;;5.47;1.70;;;;;;;;;;6009836;23;20125;-48
2021/08/03 06:00:20;;;;;;;3.88;1.52;;;;;;;;;;5990771;23;20033;-50
2021/08/03 06:02:46;;;;;;;7.30;1.80;;;;;;;;;;5984647;23;20044;-51
2021/08/03 06:05:14;;;;;;;6.82;1.73;;;;;;;;;;6012411;23;20116;-51
2021/08/03 06:07:45;;;;;;;3.70;1.73;;;;;;;;;;5985339;23;20045;-49
2021/08/03 06:10:12;;;;;;;3.10;1.52;;;;;;;;;;5981997;23;20078;-51
2021/08/03 06:12:39;;;;;;;3.92;1.60;;;;;;;;;;6009636;23;20038;-49
2021/08/03 06:15:10;;;;;;;3.90;1.80;;;;;;;;;;5994664;23;20031;-50
2021/08/03 06:20:23;;;;;;;3.42;1.80;;;;;;;;;;5980179;23;20030;-52
2021/08/03 06:22:49;;;;;;;6.25;2.03;;;;;;;;;;5991191;23;20034;-49
2021/08/03 06:25:17;;;;;;;5.28;2.08;;;;;;;;;;5985346;23;20046;-49
2021/08/03 06:27:44;;;;;;;7.65;2.30;;;;;;;;;;5987353;23;20042;-50
2021/08/03 06:30:12;;;;;;;4.78;1.63;;;;;;;;;;5978272;23;20030;-50
2021/08/03 06:32:41;;;;;;;7.13;1.70;;;;;;;;;;5990243;23;20030;-49
2021/08/03 06:35:09;;;;;;;6.63;1.90;;;;;;;;;;5987695;23;20018;-50
2021/08/03 06:37:37;;;;;;;5.28;1.70;;;;;;;;;;5992210;23;20034;-50
2021/08/03 06:40:06;;;;;;;5.77;1.90;;;;;;;;;;5981988;23;20038;-51
2021/08/03 06:42:38;;;;;;;8.85;1.90;;;;;;;;;;5993225;23;20033;-51
2021/08/03 06:45:06;;;;;;;5.43;1.70;;;;;;;;;;5985031;23;20028;-50
2021/08/03 06:47:39;;;;;;;4.18;1.42;;;;;;;;;;5952871;23;20104;-51
2021/08/03 06:50:07;;;;;;;3.65;1.80;;;;;;;;;;5974791;23;20119;-51
2021/08/03 06:52:35;;;;;;;5.13;2.25;;;;;;;;;;5990240;23;20042;-48
2021/08/03 06:55:05;;;;;;;5.35;1.90;;;;;;;;;;5990371;23;20094;-49
2021/08/03 06:57:33;;;;;;;6.55;1.75;;;;;;;;;;5993568;23;20034;-50
2021/08/03 07:00:02;;;;;;;2.95;1.55;;;;;;;;;;5990816;23;20030;-51
2021/08/03 07:02:30;;;;;;;5.97;2.20;;;;;;;;;;5993548;23;20039;-49
2021/08/03 07:04:58;;;;;;;4.40;1.65;;;;;;;;;;5995410;23;20062;-51
2021/08/03 07:07:25;;;;;;;4.60;1.77;;;;;;;;;;5986544;23;20030;-52
2021/08/03 07:09:52;;;;;;;7.78;2.38;;;;;;;;;;5993739;23;20040;-50
2021/08/03 07:12:20;;;;;;;8.00;1.95;;;;;;;;;;6010380;23;20038;-49
2021/08/03 07:14:47;;;;;;;6.40;2.20;;;;;;;;;;5965091;23;20023;-53
2021/08/03 07:17:14;;;;;;;5.63;2.53;;;;;;;;;;5983458;23;20045;-51
2021/08/03 07:19:41;;;;;;;8.32;2.90;;;;;;;;;;5993521;23;20063;-49
2021/08/03 07:22:09;;;;;;;10.35;2.67;;;;;;;;;;5973023;23;20038;-51
2021/08/03 07:24:38;;;;;;;8.80;2.90;;;;;;;;;;5966479;23;20034;-50
2021/08/03 07:27:04;;;;;;;7.43;3.00;;;;;;;;;;5962176;23;20031;-48
2021/08/03 07:29:32;;;;;;;9.50;3.58;;;;;;;;;;5967104;23;20033;-50
2021/08/03 07:31:59;;;;;;;6.55;3.45;;;;;;;;;;5963115;23;20031;-51
2021/08/03 07:34:25;;;;;;;11.27;3.92;;;;;;;;;;5964329;23;20019;-51
2021/08/03 07:36:52;;;;;;;8.90;4.05;;;;;;;;;;5961159;23;20045;-51
2021/08/03 07:39:19;;;;;;;9.77;4.15;;;;;;;;;;5964885;23;20046;-54
2021/08/03 07:41:46;;;;;;;9.95;4.57;;;;;;;;;;5966719;23;20050;-51
2021/08/03 07:44:13;;;;;;;13.00;5.35;;;;;;;;;;5992725;23;20041;-50
2021/08/03 07:46:41;;;;;;;12.52;5.55;;;;;;;;;;5990927;23;20046;-51
2021/08/03 07:49:08;;;;;;;11.43;5.78;;;;;;;;;;5964801;23;20022;-51
2021/08/03 07:51:37;;;;;;;12.63;6.40;;;;;;;;;;5965169;24;20027;-49
2021/08/03 07:54:06;;;;;;;12.65;6.18;;;;;;;;;;5952261;23;20045;-51
2021/08/03 07:56:33;;;;;;;16.55;6.65;;;;;;;;;;5953224;23;20038;-49
2021/08/03 07:59:00;;;;;;;14.88;6.35;;;;;;;;;;5968001;23;20045;-50
2021/08/03 08:01:27;;;;;;;14.50;6.93;;;;;;;;;;5993755;23;20054;-49
2021/08/03 08:03:55;;;;;;;14.93;6.25;;;;;;;;;;5982748;23;20174;-51
2021/08/03 08:06:21;;;;;;;17.80;6.77;;;;;;;;;;5991456;23;20065;-52
2021/08/03 08:08:48;;;;;;;11.27;5.88;;;;;;;;;;6002756;23;20038;-50
2021/08/03 08:11:14;;;;;;;14.10;6.75;;;;;;;;;;5988208;23;20074;-52
2021/08/03 08:13:41;;;;;;;14.52;7.07;;;;;;;;;;5985167;23;20042;-52
2021/08/03 08:16:07;;;;;;;15.25;6.93;;;;;;;;;;5987807;23;20042;-50
2021/08/03 08:18:33;;;;;;;12.70;6.43;;;;;;;;;;5971832;23;20046;-53
2021/08/03 08:21:01;;;;;;;13.50;5.93;;;;;;;;;;5993184;23;20037;-51
2021/08/03 08:23:28;;;;;;;15.07;6.38;;;;;;;;;;5988075;23;20061;-52
2021/08/03 08:25:58;;;;;;;16.30;7.40;;;;;;;;;;5994363;23;20040;-53
2021/08/03 08:28:25;;;;;;;19.63;8.00;;;;;;;;;;5989537;23;20038;-50
2021/08/03 08:30:52;;;;;;;16.80;7.50;;;;;;;;;;5994189;23;20030;-53
2021/08/03 08:33:18;;;;;;;14.77;7.03;;;;;;;;;;5993813;23;20045;-51
2021/08/03 08:35:46;;;;;;;17.15;6.90;;;;;;;;;;5985053;23;20049;-52
2021/08/03 08:38:14;;;;;;;15.40;6.85;;;;;;;;;;5968111;23;20045;-54
2021/08/03 08:40:41;;;;;;;12.77;6.13;;;;;;;;;;5998205;23;20041;-54
2021/08/03 08:43:11;;;;;;;17.55;5.85;;;;;;;;;;5965452;23;20035;-54
2021/08/03 08:45:38;;;;;;;14.45;5.97;;;;;;;;;;5983141;23;20037;-52
2021/08/03 08:48:06;;;;;;;14.35;7.03;;;;;;;;;;5994451;23;20021;-50
2021/08/03 08:50:33;;;;;;;12.65;6.18;;;;;;;;;;5984887;23;20051;-54
2021/08/03 08:53:02;;;;;;;14.18;6.38;;;;;;;;;;5974886;23;20030;-53
2021/08/03 08:55:30;;;;;;;14.43;6.13;;;;;;;;;;5997135;23;20022;-50
2021/08/03 08:57:56;;;;;;;13.52;6.18;;;;;;;;;;5992888;23;20022;-53
2021/08/03 09:00:24;;;;;;;11.80;6.15;;;;;;;;;;5990583;23;20042;-50
2021/08/03 09:02:52;;;;;;;17.98;7.10;;;;;;;;;;6017621;23;20025;-53
2021/08/03 09:05:26;;;;;;;13.60;6.45;;;;;;;;;;5991752;23;20041;-53
2021/08/03 09:07:54;;;;;;;13.88;6.72;;;;;;;;;;5992794;23;20053;-49
2021/08/03 09:10:32;;;;;;;15.25;6.70;;;;;;;;;;5990098;23;20081;-53
2021/08/03 09:13:00;;;;;;;12.13;6.35;;;;;;;;;;5993647;23;20037;-50
2021/08/03 09:15:27;;;;;;;21.33;8.52;;;;;;;;;;5989095;23;20277;-54
2021/08/03 09:17:53;;;;;;;12.73;6.82;;;;;;;;;;5992932;23;20022;-52
2021/08/03 09:20:20;;;;;;;13.52;6.68;;;;;;;;;;5991424;23;20046;-53
2021/08/03 09:22:48;;;;;;;17.25;6.85;;;;;;;;;;5989333;23;20038;-51
2021/08/03 09:25:18;;;;;;;13.73;6.97;;;;;;;;;;5988397;23;20055;-52
2021/08/03 09:27:47;;;;;;;16.35;6.97;;;;;;;;;;6004451;23;20137;-49
2021/08/03 09:30:27;;;;;;;15.30;7.28;;;;;;;;;;5964232;24;20178;-54
2021/08/03 09:32:53;;;;;;;13.43;6.90;;;;;;;;;;5978165;23;20034;-52
2021/08/03 09:35:23;;;;;;;12.02;5.90;;;;;;;;;;5966635;23;20054;-54
2021/08/03 09:37:50;;;;;;;18.25;7.28;;;;;;;;;;5983300;23;20049;-54
2021/08/03 09:40:20;;;;;;;17.38;6.18;;;;;;;;;;6017201;23;20034;-51
2021/08/03 09:42:57;;;;;;;13.57;6.82;;;;;;;;;;5971002;23;20045;-53
2021/08/03 09:45:24;;;;;;;11.70;6.10;;;;;;;;;;5964809;24;20034;-55
2021/08/03 09:47:57;;;;;;;18.20;7.72;;;;;;;;;;5965359;24;20116;-52
2021/08/03 09:50:25;;;;;;;14.23;7.03;;;;;;;;;;5992508;23;20033;-52
2021/08/03 09:52:52;;;;;;;17.08;7.53;;;;;;;;;;5974455;23;20112;-54
2021/08/03 09:55:20;;;;;;;18.07;6.40;;;;;;;;;;5953906;23;20050;-54
2021/08/03 09:57:48;;;;;;;17.02;6.85;;;;;;;;;;5961375;24;20038;-54
2021/08/03 10:00:34;;;;;;;17.45;7.68;;;;;;;;;;5964563;24;20045;-49
2021/08/03 10:03:01;;;;;;;19.10;7.38;;;;;;;;;;5992319;23;20033;-51
2021/08/03 10:05:28;;;;;;;16.30;8.05;;;;;;;;;;5963323;23;20096;-49
2021/08/03 10:07:54;;;;;;;16.80;7.18;;;;;;;;;;5970286;23;20093;-51
2021/08/03 10:10:21;;;;;;;22.30;7.10;;;;;;;;;;5981588;23;20042;-52
2021/08/03 10:12:49;;;;;;;14.82;6.85;;;;;;;;;;5967508;24;20041;-51
2021/08/03 10:15:16;;;;;;;21.00;7.63;;;;;;;;;;5992917;23;20046;-50
2021/08/03 10:17:42;;;;;;;18.20;8.32;;;;;;;;;;5979480;23;20029;-52
2021/08/03 10:20:10;;;;;;;19.83;8.70;;;;;;;;;;5993126;23;20048;-53
2021/08/03 10:22:39;;;;;;;19.17;8.35;;;;;;;;;;5992531;23;20085;-52
2021/08/03 10:25:10;;;;;;;21.73;7.53;;;;;;;;;;5984216;23;20034;-49
2021/08/03 10:27:41;;;;;;;20.02;8.38;;;;;;;;;;5987727;23;20030;-50
2021/08/03 10:30:09;;;;;;;18.10;7.53;;;;;;;;;;6011812;23;20041;-53
2021/08/03 10:32:37;;;;;;;15.10;8.00;;;;;;;;;;5992247;23;20052;-50
2021/08/03 10:35:05;;;;;;;15.35;6.45;;;;;;;;;;5983838;23;20070;-50
2021/08/03 10:37:52;;;;;;;16.88;8.02;;;;;;;;;;5988813;23;20030;-49
2021/08/03 10:40:19;;;;;;;16.87;7.83;;;;;;;;;;5982500;23;20022;-49
2021/08/03 10:43:12;;;;;;;13.65;6.35;;;;;;;;;;5989944;23;20033;-48
2021/08/03 10:45:40;;;;;;;14.85;6.55;;;;;;;;;;5987295;23;20030;-53
2021/08/03 10:48:06;;;;;;;17.85;7.07;;;;;;;;;;5992416;23;20062;-50
2021/08/03 10:50:33;;;;;;;16.27;7.75;;;;;;;;;;5983920;23;20038;-54
2021/08/03 10:53:02;;;;;;;17.17;8.45;;;;;;;;;;5966623;23;20037;-53
2021/08/03 10:55:30;;;;;;;16.85;8.10;;;;;;;;;;6001622;23;20038;-51
2021/08/03 10:58:12;;;;;;;17.17;8.82;;;;;;;;;;5992419;23;20026;-52
2021/08/03 11:00:42;;;;;;;17.20;8.10;;;;;;;;;;5971986;23;20045;-48
2021/08/03 11:03:24;;;;;;;13.70;7.75;;;;;;;;;;5990844;23;20038;-50
2021/08/03 11:05:50;;;;;;;15.55;8.10;;;;;;;;;;5988429;23;20046;-53
2021/08/03 11:08:35;;;;;;;17.13;8.63;;;;;;;;;;5992817;23;20034;-55
2021/08/03 11:11:06;;;;;;;19.15;7.80;;;;;;;;;;5990713;23;20037;-53
2021/08/03 11:13:40;;;;;;;18.67;8.18;;;;;;;;;;5991384;23;20049;-54
2021/08/03 11:16:12;;;;;;;17.50;7.05;;;;;;;;;;5991709;23;20049;-54
2021/08/03 11:18:42;;;;;;;19.63;7.40;;;;;;;;;;5990892;23;20026;-55
2021/08/03 11:21:10;;;;;;;17.80;8.45;;;;;;;;;;5984765;23;20034;-51
2021/08/03 11:23:55;;;;;;;22.63;8.87;;;;;;;;;;5986165;23;20046;-53
2021/08/03 11:26:22;;;;;;;22.75;9.63;;;;;;;;;;5995862;23;20335;-52
2021/08/03 11:28:56;;;;;;;18.42;9.00;;;;;;;;;;5991276;23;20034;-54
2021/08/03 11:31:23;;;;;;;21.92;10.38;;;;;;;;;;5977456;23;20034;-49
2021/08/03 11:33:55;;;;;;;20.92;11.23;;;;;;;;;;5964679;23;20050;-49
2021/08/03 11:36:21;;;;;;;17.45;8.93;;;;;;;;;;5970209;23;20033;-53
2021/08/03 11:38:48;;;;;;;21.33;9.40;;;;;;;;;;5994748;23;20026;-54
2021/08/03 11:41:14;;;;;;;18.65;8.88;;;;;;;;;;5992464;23;20030;-50
2021/08/03 11:43:41;;;;;;;15.90;7.47;;;;;;;;;;5994200;23;20042;-55
2021/08/03 11:46:07;;;;;;;11.00;6.25;;;;;;;;;;5990641;23;20037;-53
2021/08/03 11:48:35;;;;;;;13.18;6.18;;;;;;;;;;5992196;23;20038;-53
2021/08/03 11:51:02;;;;;;;12.60;5.97;;;;;;;;;;5993623;23;20049;-53
2021/08/03 11:53:29;;;;;;;10.05;5.50;;;;;;;;;;5962086;23;20031;-52
2021/08/03 11:55:56;;;;;;;12.75;5.70;;;;;;;;;;5965755;23;20137;-49
2021/08/03 11:58:23;;;;;;;14.95;4.93;;;;;;;;;;5962902;24;20049;-52
2021/08/03 12:00:52;;;;;;;12.13;5.78;;;;;;;;;;5964905;23;20022;-52
2021/08/03 12:03:29;;;;;;;12.60;5.68;;;;;;;;;;5982600;23;20116;-52
2021/08/03 12:05:59;;;;;;;12.35;6.05;;;;;;;;;;5992132;23;20034;-52
2021/08/03 12:08:32;;;;;;;15.05;5.93;;;;;;;;;;6013883;23;20033;-52
2021/08/03 12:10:58;;;;;;;21.40;7.03;;;;;;;;;;5999003;23;20033;-49
2021/08/03 12:13:28;;;;;;;12.70;6.35;;;;;;;;;;6014189;23;20045;-50
2021/08/03 12:15:56;;;;;;;14.88;6.00;;;;;;;;;;5995723;23;20046;-52
2021/08/03 12:18:23;;;;;;;12.45;6.82;;;;;;;;;;5979206;23;20054;-49
2021/08/03 12:20:54;;;;;;;13.23;6.47;;;;;;;;;;5983719;23;20041;-52
2021/08/03 12:23:22;;;;;;;11.85;6.78;;;;;;;;;;6008174;23;20080;-53
2021/08/03 12:25:55;;;;;;;;;;;;;;;;;;5951078;23;20026;-50
2021/08/03 12:28:32;;;;;;;11.20;6.05;;;;;;;;;;5962947;23;19933;-53
2021/08/03 12:31:14;;;;;;;17.90;7.53;;;;;;;;;;5966153;24;20045;-51
2021/08/03 12:33:40;;;;;;;12.52;7.05;;;;;;;;;;5975937;23;20037;-53
2021/08/03 12:36:08;;;;;;;16.52;7.38;;;;;;;;;;5970498;24;20046;-53
2021/08/03 12:38:38;;;;;;;14.75;6.60;;;;;;;;;;5982408;23;20042;-55
2021/08/03 12:41:22;;;;;;;14.45;6.47;;;;;;;;;;5988122;23;20030;-52
2021/08/03 12:43:49;;;;;;;13.45;5.35;;;;;;;;;;5981238;23;20030;-52
2021/08/03 12:46:21;;;;;;;11.05;5.20;;;;;;;;;;5965267;23;20038;-50
2021/08/03 12:48:51;;;;;;;13.65;4.72;;;;;;;;;;5984989;23;20030;-53
2021/08/03 12:51:24;;;;;;;9.85;3.90;;;;;;;;;;5981274;23;20044;-51
2021/08/03 12:53:52;;;;;;;8.15;3.50;;;;;;;;;;5988770;23;20029;-50
2021/08/03 12:56:28;;;;;;;8.82;3.92;;;;;;;;;;6016549;23;20038;-49
2021/08/03 12:58:55;;;;;;;10.15;3.05;;;;;;;;;;5989308;23;20060;-57
2021/08/03 13:01:23;;;;;;;9.40;3.40;;;;;;;;;;5994954;23;20026;-52
2021/08/03 13:03:52;;;;;;;9.95;3.63;;;;;;;;;;5993526;23;20078;-53
2021/08/03 13:06:19;;;;;;;7.88;3.08;;;;;;;;;;5961203;23;20063;-53
2021/08/03 13:08:46;;;;;;;7.45;3.33;;;;;;;;;;5964897;23;20096;-50
2021/08/03 13:11:16;;;;;;;8.75;2.80;;;;;;;;;;5978010;23;20050;-49
2021/08/03 13:13:42;;;;;;;8.13;2.95;;;;;;;;;;5987943;23;20026;-50
2021/08/03 13:16:09;;;;;;;6.43;3.10;;;;;;;;;;6000921;23;20035;-54
2021/08/03 13:18:38;;;;;;;15.18;2.88;;;;;;;;;;5967124;23;20045;-53
2021/08/03 13:21:05;;;;;;;6.30;2.85;;;;;;;;;;5979354;23;20034;-54
2021/08/03 13:23:31;;;;;;;11.70;3.38;;;;;;;;;;5991672;23;20049;-49
2021/08/03 13:25:58;;;;;;;9.30;3.13;;;;;;;;;;5984859;23;20030;-52
2021/08/03 13:28:25;;;;;;;7.10;3.05;;;;;;;;;;5966337;23;20045;-51
2021/08/03 13:30:52;;;;;;;8.07;2.95;;;;;;;;;;5972114;23;20026;-50
2021/08/03 13:33:18;;;;;;;8.07;3.40;;;;;;;;;;5993505;23;20037;-53
2021/08/03 13:35:45;;;;;;;10.10;3.25;;;;;;;;;;5983047;23;20023;-50
2021/08/03 13:38:11;;;;;;;8.40;3.45;;;;;;;;;;5964014;24;20034;-50
2021/08/03 13:40:38;;;;;;;10.70;3.45;;;;;;;;;;5964324;24;20113;-50
2021/08/03 13:43:04;;;;;;;6.97;3.63;;;;;;;;;;5993031;23;20035;-52
2021/08/03 13:45:32;;;;;;;10.85;4.82;;;;;;;;;;5992046;23;20048;-49
2021/08/03 13:47:58;;;;;;;10.02;4.75;;;;;;;;;;5989485;23;20038;-51
2021/08/03 13:50:25;;;;;;;9.73;5.38;;;;;;;;;;5994226;23;20033;-48
2021/08/03 13:52:51;;;;;;;8.73;5.03;;;;;;;;;;5983842;23;20062;-51
2021/08/03 13:55:20;;;;;;;13.27;7.03;;;;;;;;;;5989125;23;20045;-49
2021/08/03 13:57:46;;;;;;;15.10;7.85;;;;;;;;;;6008159;23;20033;-51
2021/08/03 14:00:13;;;;;;;14.30;6.90;;;;;;;;;;5992821;23;20153;-53
2021/08/03 14:02:41;;;;;;;16.08;8.27;;;;;;;;;;5986205;23;20045;-51
2021/08/03 14:05:08;;;;;;;13.80;8.23;;;;;;;;;;5964495;23;20144;-52
2021/08/03 14:07:35;;;;;;;16.52;8.40;;;;;;;;;;5976729;23;20034;-54
2021/08/03 14:10:01;;;;;;;15.48;7.60;;;;;;;;;;5988727;23;20030;-48
2021/08/03 14:12:28;;;;;;;18.55;8.85;;;;;;;;;;5987747;23;20117;-50
2021/08/03 14:14:55;;;;;;;19.45;8.63;;;;;;;;;;5975768;23;20038;-50
2021/08/03 14:17:21;;;;;;;20.43;9.17;;;;;;;;;;5985471;23;20038;-50
2021/08/03 14:19:49;;;;;;;20.05;8.27;;;;;;;;;;5965215;23;20041;-50
2021/08/03 14:22:16;;;;;;;14.10;7.60;;;;;;;;;;5987069;23;20132;-49
2021/08/03 14:24:43;;;;;;;14.75;8.57;;;;;;;;;;5990920;23;20100;-54
2021/08/03 14:27:09;;;;;;;13.48;7.82;;;;;;;;;;5993078;23;20045;-49
2021/08/03 14:29:37;;;;;;;16.10;8.05;;;;;;;;;;5962824;23;20031;-52
2021/08/03 14:32:04;;;;;;;15.60;7.03;;;;;;;;;;5966067;24;20022;-50
2021/08/03 14:34:32;;;;;;;12.98;7.10;;;;;;;;;;5965247;23;20331;-52
2021/08/03 14:36:59;;;;;;;13.73;7.30;;;;;;;;;;5962977;24;20042;-52
2021/08/03 14:39:26;;;;;;;16.27;7.65;;;;;;;;;;5983126;24;20078;-51
2021/08/03 14:41:52;;;;;;;12.80;6.82;;;;;;;;;;5982940;23;20037;-52
2021/08/03 14:44:20;;;;;;;13.32;6.80;;;;;;;;;;6002289;23;20034;-49
2021/08/03 14:46:46;;;;;;;11.77;6.53;;;;;;;;;;5992241;23;20030;-52